createdAt,value
2016-02-27T00:00:08.996Z,5.47
2016-02-27T00:01:09.015Z,5.41
2016-02-27T00:02:09.048Z,5.39
2016-02-27T00:03:09.051Z,5.41
2016-02-27T00:04:09.070Z,5.39
2016-02-27T00:05:09.072Z,5.43
2016-02-27T00:06:09.106Z,5.51
2016-02-27T00:07:09.124Z,5.39
2016-02-27T00:08:09.112Z,5.35
2016-02-27T00:09:09.130Z,5.35
2016-02-27T00:10:09.163Z,5.36
2016-02-27T00:11:09.166Z,5.3
2016-02-27T00:12:09.215Z,5.28
2016-02-27T00:13:09.187Z,5.38
2016-02-27T00:14:09.221Z,5.29
2016-02-27T00:15:09.271Z,5.32
2016-02-27T00:16:09.242Z,5.32
2016-02-27T00:17:09.245Z,5.35
2016-02-27T00:18:09.264Z,5.38
2016-02-27T00:19:09.282Z,5.29
2016-02-27T00:20:09.300Z,5.35
2016-02-27T00:21:09.162Z,5.32
2016-02-27T00:22:09.337Z,5.36
2016-02-27T00:23:09.339Z,5.36
2016-02-27T00:24:09.373Z,5.3
2016-02-27T00:25:09.360Z,5.38
2016-02-27T00:26:09.394Z,5.26
2016-02-27T00:27:09.397Z,5.35
2016-02-27T00:28:09.446Z,5.28
2016-02-27T00:29:09.433Z,5.32
2016-02-27T00:30:09.452Z,5.21
2016-02-27T00:31:09.454Z,5.29
2016-02-27T00:32:09.473Z,5.23
2016-02-27T00:33:09.491Z,5.23
2016-02-27T00:34:09.510Z,5.28
2016-02-27T00:35:09.528Z,5.29
2016-02-27T00:36:09.547Z,5.21
2016-02-27T00:37:09.533Z,5.15
2016-02-27T00:38:09.568Z,5.15
2016-02-27T00:39:09.585Z,5.3
2016-02-27T00:40:09.604Z,5.15
2016-02-27T00:41:09.622Z,5.26
2016-02-27T00:42:09.624Z,5.29
2016-02-27T00:43:09.643Z,5.29
2016-02-27T00:44:09.646Z,5.2
2016-02-27T00:45:09.679Z,5.26
2016-02-27T00:46:09.668Z,5.23
2016-02-27T00:47:09.685Z,5.21
2016-02-27T00:48:09.719Z,5.26
2016-02-27T00:49:09.723Z,5.21
2016-02-27T00:50:09.740Z,5.18
2016-02-27T00:51:09.742Z,5.25
2016-02-27T00:52:09.776Z,5.21
2016-02-27T00:53:09.779Z,5.17
2016-02-27T00:54:09.814Z,5.21
2016-02-27T00:55:09.800Z,5.2
2016-02-27T00:56:09.850Z,5.17
2016-02-27T00:57:09.837Z,5.2
2016-02-27T00:58:09.855Z,5.17
2016-02-27T00:59:09.874Z,5.12
2016-02-27T01:00:09.877Z,5.21
2016-02-27T01:01:09.910Z,5.15
2016-02-27T01:02:09.928Z,5.17
2016-02-27T01:03:09.916Z,5.15
2016-02-27T01:04:09.934Z,5.1
2016-02-27T01:05:09.952Z,5.05
2016-02-27T01:06:09.971Z,5.11
2016-02-27T01:07:09.974Z,5.08
2016-02-27T01:08:10.008Z,5.18
2016-02-27T01:09:10.026Z,5.14
2016-02-27T01:10:10.029Z,5.11
2016-02-27T01:11:10.047Z,5.08
2016-02-27T01:12:10.049Z,5.07
2016-02-27T01:13:10.083Z,5.08
2016-02-27T01:14:10.085Z,5.08
2016-02-27T01:15:10.104Z,5.1
2016-02-27T01:16:10.107Z,5.05
2016-02-27T01:17:10.126Z,5.02
2016-02-27T01:18:10.143Z,5.02
2016-02-27T01:19:10.161Z,4.94
2016-02-27T01:20:10.196Z,5
2016-02-27T01:21:10.184Z,4.97
2016-02-27T01:22:10.201Z,5
2016-02-27T01:23:10.204Z,4.97
2016-02-27T01:24:10.254Z,5.02
2016-02-27T01:25:10.240Z,5
2016-02-27T01:26:10.243Z,5.04
2016-02-27T01:27:10.261Z,5.04
2016-02-27T01:28:10.280Z,4.9
2016-02-27T01:29:10.313Z,5.05
2016-02-27T01:30:10.316Z,4.96
2016-02-27T01:31:10.336Z,4.97
2016-02-27T01:32:10.338Z,4.9
2016-02-27T01:33:10.340Z,4.93
2016-02-27T01:34:10.375Z,4.93
2016-02-27T01:35:10.377Z,4.94
2016-02-27T01:36:10.395Z,4.93
2016-02-27T01:37:10.413Z,4.94
2016-02-27T01:38:10.416Z,4.93
2016-02-27T01:39:10.450Z,4.92
2016-02-27T01:40:10.468Z,4.89
2016-02-27T01:41:10.471Z,4.84
2016-02-27T01:42:10.490Z,4.9
2016-02-27T01:43:10.492Z,4.9
2016-02-27T01:44:10.510Z,4.82
2016-02-27T01:45:10.529Z,4.92
2016-02-27T01:46:10.547Z,4.82
2016-02-27T01:47:10.549Z,4.78
2016-02-27T01:48:10.568Z,4.84
2016-02-27T01:49:10.587Z,4.9
2016-02-27T01:50:10.604Z,4.84
2016-02-27T01:51:10.623Z,4.87
2016-02-27T01:52:10.625Z,4.86
2016-02-27T01:53:10.644Z,4.8
2016-02-27T01:54:10.662Z,4.86
2016-02-27T01:55:10.680Z,4.8
2016-02-27T01:56:10.684Z,4.86
2016-02-27T01:57:10.701Z,4.87
2016-02-27T01:58:10.720Z,4.8
2016-02-27T01:59:10.739Z,4.7
2016-02-27T02:00:10.756Z,4.63
2016-02-27T02:01:10.759Z,4.86
2016-02-27T02:02:10.793Z,4.67
2016-02-27T02:03:10.842Z,4.7
2016-02-27T02:04:10.799Z,4.68
2016-02-27T02:05:10.802Z,4.84
2016-02-27T02:06:10.820Z,4.66
2016-02-27T02:07:10.838Z,4.67
2016-02-27T02:08:10.856Z,4.67
2016-02-27T02:09:10.858Z,4.68
2016-02-27T02:10:10.877Z,4.73
2016-02-27T02:11:10.896Z,4.7
2016-02-27T02:12:10.913Z,4.67
2016-02-27T02:13:10.916Z,4.6
2016-02-27T02:14:10.934Z,4.66
2016-02-27T02:15:10.954Z,4.58
2016-02-27T02:16:10.972Z,4.66
2016-02-27T02:17:11.099Z,4.56
2016-02-27T02:18:11.087Z,4.59
2016-02-27T02:19:11.010Z,4.74
2016-02-27T02:20:11.029Z,4.59
2016-02-27T02:21:11.047Z,4.68
2016-02-27T02:22:11.050Z,4.67
2016-02-27T02:23:11.069Z,4.58
2016-02-27T02:24:11.087Z,4.56
2016-02-27T02:25:11.090Z,4.6
2016-02-27T02:26:11.108Z,4.62
2016-02-27T02:27:11.111Z,4.59
2016-02-27T02:28:11.129Z,4.58
2016-02-27T02:29:11.147Z,4.59
2016-02-27T02:30:11.165Z,4.53
2016-02-27T02:31:11.184Z,4.56
2016-02-27T02:32:11.202Z,4.6
2016-02-27T02:33:11.189Z,4.6
2016-02-27T02:34:11.208Z,4.58
2016-02-27T02:35:11.242Z,4.52
2016-02-27T02:36:11.244Z,4.55
2016-02-27T02:37:11.294Z,4.53
2016-02-27T02:38:11.280Z,4.49
2016-02-27T02:39:11.299Z,4.55
2016-02-27T02:40:11.301Z,4.53
2016-02-27T02:41:11.319Z,4.52
2016-02-27T02:42:11.339Z,4.52
2016-02-27T02:43:11.341Z,4.53
2016-02-27T02:44:11.360Z,4.44
2016-02-27T02:45:11.377Z,4.5
2016-02-27T02:46:11.396Z,4.48
2016-02-27T02:47:11.460Z,4.5
2016-02-27T02:48:11.417Z,4.45
2016-02-27T02:49:11.420Z,4.45
2016-02-27T02:50:11.454Z,4.53
2016-02-27T02:51:11.457Z,4.5
2016-02-27T02:52:11.474Z,4.48
2016-02-27T02:53:11.321Z,4.44
2016-02-27T02:54:11.496Z,4.5
2016-02-27T02:55:11.514Z,4.41
2016-02-27T02:56:11.532Z,4.44
2016-02-27T02:57:11.534Z,4.4
2016-02-27T02:58:11.537Z,4.4
2016-02-27T02:59:11.556Z,4.45
2016-02-27T03:00:11.574Z,4.34
2016-02-27T03:01:11.593Z,4.35
2016-02-27T03:02:11.501Z,4.41
2016-02-27T03:03:11.676Z,4.31
2016-02-27T03:04:11.663Z,4.37
2016-02-27T03:05:11.713Z,4.34
2016-02-27T03:06:11.669Z,4.41
2016-02-27T03:07:11.686Z,4.31
2016-02-27T03:08:11.689Z,4.37
2016-02-27T03:09:11.708Z,4.31
2016-02-27T03:10:11.711Z,4.38
2016-02-27T03:11:11.729Z,4.41
2016-02-27T03:12:11.732Z,4.3
2016-02-27T03:13:11.766Z,4.44
2016-02-27T03:14:11.768Z,4.3
2016-02-27T03:15:11.786Z,4.3
2016-02-27T03:16:11.804Z,4.26
2016-02-27T03:17:11.824Z,4.32
2016-02-27T03:18:11.826Z,4.26
2016-02-27T03:19:11.876Z,4.35
2016-02-27T03:20:11.862Z,4.24
2016-02-27T03:21:11.881Z,4.31
2016-02-27T03:22:11.915Z,4.28
2016-02-27T03:23:11.901Z,4.28
2016-02-27T03:24:11.920Z,4.3
2016-02-27T03:25:12.079Z,4.28
2016-02-27T03:26:11.926Z,4.34
2016-02-27T03:27:11.943Z,4.31
2016-02-27T03:28:11.978Z,4.2
2016-02-27T03:29:11.981Z,4.2
2016-02-27T03:30:11.983Z,4.24
2016-02-27T03:31:12.001Z,4.19
2016-02-27T03:32:11.895Z,4.26
2016-02-27T03:33:12.084Z,4.22
2016-02-27T03:34:12.041Z,4.17
2016-02-27T03:35:12.058Z,4.19
2016-02-27T03:36:12.062Z,4.17
2016-02-27T03:37:12.080Z,4.24
2016-02-27T03:38:12.114Z,4.13
2016-02-27T03:39:12.133Z,4.2
2016-02-27T03:40:12.135Z,4.17
2016-02-27T03:41:12.138Z,4.2
2016-02-27T03:42:12.155Z,4.23
2016-02-27T03:43:12.174Z,4.23
2016-02-27T03:44:12.193Z,4.17
2016-02-27T03:45:12.196Z,4.26
2016-02-27T03:46:12.214Z,4.16
2016-02-27T03:47:12.263Z,4.23
2016-02-27T03:48:12.235Z,4.1
2016-02-27T03:49:12.253Z,4.2
2016-02-27T03:50:12.271Z,4.2
2016-02-27T03:51:12.289Z,4.06
2016-02-27T03:52:12.293Z,4.2
2016-02-27T03:53:12.310Z,4.14
2016-02-27T03:54:12.329Z,4.19
2016-02-27T03:55:12.348Z,4.26
2016-02-27T03:56:12.350Z,4.16
2016-02-27T03:57:12.368Z,4.16
2016-02-27T03:58:12.386Z,4.08
2016-02-27T03:59:12.404Z,4.16
2016-02-27T04:00:12.439Z,4.17
2016-02-27T04:01:12.442Z,4.14
2016-02-27T04:02:12.304Z,4.13
2016-02-27T04:03:12.431Z,4.12
2016-02-27T04:04:12.450Z,4.14
2016-02-27T04:05:12.467Z,4.1
2016-02-27T04:06:12.470Z,4.14
2016-02-27T04:07:12.504Z,4.12
2016-02-27T04:08:12.508Z,4.08
2016-02-27T04:09:12.526Z,4.13
2016-02-27T04:10:12.544Z,4.12
2016-02-27T04:11:12.562Z,4.1
2016-02-27T04:12:12.550Z,4.14
2016-02-27T04:13:12.567Z,4.06
2016-02-27T04:14:12.649Z,4.1
2016-02-27T04:15:12.604Z,4.04
2016-02-27T04:16:12.622Z,4.01
2016-02-27T04:17:12.656Z,4.06
2016-02-27T04:18:12.643Z,4.01
2016-02-27T04:19:12.663Z,3.98
2016-02-27T04:20:12.665Z,3.99
2016-02-27T04:21:12.683Z,3.94
2016-02-27T04:22:12.701Z,4.04
2016-02-27T04:23:12.719Z,4.01
2016-02-27T04:24:12.721Z,4.1
2016-02-27T04:25:12.741Z,4.06
2016-02-27T04:26:12.743Z,4.08
2016-02-27T04:27:12.762Z,4.06
2016-02-27T04:28:12.780Z,4.01
2016-02-27T04:29:12.798Z,4.06
2016-02-27T04:30:12.789Z,4.02
2016-02-27T04:31:12.810Z,3.96
2016-02-27T04:32:12.659Z,3.96
2016-02-27T04:33:12.805Z,4.01
2016-02-27T04:34:12.825Z,4.08
2016-02-27T04:35:12.807Z,3.91
2016-02-27T04:36:12.836Z,4.01
2016-02-27T04:37:12.834Z,3.99
2016-02-27T04:38:12.832Z,3.96
2016-02-27T04:39:12.844Z,4.04
2016-02-27T04:40:12.845Z,4.08
2016-02-27T04:41:12.862Z,4.04
2016-02-27T04:42:12.879Z,4.04
2016-02-27T04:43:12.912Z,3.96
2016-02-27T04:44:12.897Z,3.98
2016-02-27T04:45:12.915Z,4.04
2016-02-27T04:46:12.931Z,3.98
2016-02-27T04:47:12.996Z,4.02
2016-02-27T04:48:12.951Z,3.96
2016-02-27T04:49:12.969Z,3.98
2016-02-27T04:50:12.971Z,4.01
2016-02-27T04:51:12.989Z,3.94
2016-02-27T04:52:13.007Z,3.95
2016-02-27T04:53:13.010Z,3.98
2016-02-27T04:54:12.871Z,3.95
2016-02-27T04:55:13.045Z,3.96
2016-02-27T04:56:13.064Z,3.94
2016-02-27T04:57:13.082Z,3.99
2016-02-27T04:58:13.084Z,3.95
2016-02-27T04:59:13.087Z,3.91
2016-02-27T05:00:13.105Z,3.99
2016-02-27T05:01:13.124Z,3.96
2016-02-27T05:02:13.143Z,3.98
2016-02-27T05:03:13.145Z,3.94
2016-02-27T05:04:13.164Z,3.94
2016-02-27T05:05:13.166Z,3.96
2016-02-27T05:06:13.185Z,3.98
2016-02-27T05:07:13.202Z,3.88
2016-02-27T05:08:13.221Z,3.96
2016-02-27T05:09:13.224Z,3.95
2016-02-27T05:10:13.289Z,3.95
2016-02-27T05:11:13.261Z,3.98
2016-02-27T05:12:13.263Z,3.98
2016-02-27T05:13:13.282Z,4.01
2016-02-27T05:14:13.299Z,4.04
2016-02-27T05:15:13.302Z,3.98
2016-02-27T05:16:13.321Z,4.02
2016-02-27T05:17:13.354Z,3.96
2016-02-27T05:18:13.343Z,3.92
2016-02-27T05:19:13.360Z,3.92
2016-02-27T05:20:13.379Z,4.04
2016-02-27T05:21:13.381Z,4.01
2016-02-27T05:22:13.399Z,3.96
2016-02-27T05:23:13.401Z,4.01
2016-02-27T05:24:13.420Z,4.05
2016-02-27T05:25:13.439Z,4.04
2016-02-27T05:26:13.457Z,4.14
2016-02-27T05:27:13.476Z,4.06
2016-02-27T05:28:13.478Z,4.04
2016-02-27T05:29:13.481Z,4.05
2016-02-27T05:30:13.500Z,4.04
2016-02-27T05:31:13.517Z,4.02
2016-02-27T05:32:13.536Z,4.08
2016-02-27T05:33:13.553Z,4.06
2016-02-27T05:34:13.557Z,4.04
2016-02-27T05:35:13.575Z,4.05
2016-02-27T05:36:13.594Z,3.98
2016-02-27T05:37:13.627Z,3.99
2016-02-27T05:38:13.614Z,3.99
2016-02-27T05:39:13.616Z,3.96
2016-02-27T05:40:13.635Z,3.95
2016-02-27T05:41:13.654Z,3.95
2016-02-27T05:42:13.672Z,3.96
2016-02-27T05:43:13.691Z,4.01
2016-02-27T05:44:13.693Z,4.02
2016-02-27T05:45:13.696Z,4.01
2016-02-27T05:46:13.713Z,4.01
2016-02-27T05:47:13.732Z,4.08
2016-02-27T05:48:13.751Z,4.01
2016-02-27T05:49:13.784Z,3.95
2016-02-27T05:50:13.772Z,4.1
2016-02-27T05:51:13.056Z,4.05
2016-02-27T05:52:13.793Z,3.98
2016-02-27T05:53:13.811Z,3.99
2016-02-27T05:54:13.829Z,3.99
2016-02-27T05:55:13.848Z,4.04
2016-02-27T05:56:13.881Z,4.02
2016-02-27T05:57:13.868Z,4.04
2016-02-27T05:58:13.887Z,4.02
2016-02-27T05:59:13.890Z,4.05
2016-02-27T06:00:13.970Z,4.04
2016-02-27T06:01:13.911Z,3.96
2016-02-27T06:02:13.945Z,4.05
2016-02-27T06:03:13.947Z,4.02
2016-02-27T06:04:13.966Z,3.96
2016-02-27T06:05:13.969Z,3.99
2016-02-27T06:06:13.986Z,4.01
2016-02-27T06:07:14.005Z,4.01
2016-02-27T06:08:14.007Z,4.01
2016-02-27T06:09:13.870Z,4.01
2016-02-27T06:10:14.028Z,3.96
2016-02-27T06:11:14.047Z,4.05
2016-02-27T06:12:14.080Z,3.94
2016-02-27T06:13:14.083Z,3.95
2016-02-27T06:14:14.102Z,3.96
2016-02-27T06:15:14.120Z,3.98
2016-02-27T06:16:14.123Z,3.96
2016-02-27T06:17:14.126Z,3.94
2016-02-27T06:18:14.160Z,3.96
2016-02-27T06:19:14.177Z,3.96
2016-02-27T06:20:14.196Z,3.92
2016-02-27T06:21:14.199Z,3.96
2016-02-27T06:22:14.201Z,3.94
2016-02-27T06:23:14.204Z,3.98
2016-02-27T06:24:14.222Z,3.94
2016-02-27T06:25:14.241Z,3.96
2016-02-27T06:26:14.243Z,3.95
2016-02-27T06:27:14.278Z,3.94
2016-02-27T06:28:14.296Z,3.92
2016-02-27T06:29:14.283Z,4.02
2016-02-27T06:30:14.301Z,3.96
2016-02-27T06:31:14.319Z,3.91
2016-02-27T06:32:14.322Z,3.99
2016-02-27T06:33:14.340Z,3.96
2016-02-27T06:34:14.375Z,3.94
2016-02-27T06:35:14.377Z,3.94
2016-02-27T06:36:14.395Z,3.95
2016-02-27T06:37:14.398Z,3.94
2016-02-27T06:38:14.416Z,3.96
2016-02-27T06:39:14.435Z,3.98
2016-02-27T06:40:14.437Z,3.96
2016-02-27T06:41:14.456Z,3.94
2016-02-27T06:42:14.458Z,3.99
2016-02-27T06:43:14.491Z,3.96
2016-02-27T06:44:14.494Z,4.01
2016-02-27T06:45:14.529Z,4.08
2016-02-27T06:46:14.516Z,4.05
2016-02-27T06:47:14.549Z,4.06
2016-02-27T06:48:14.537Z,4.05
2016-02-27T06:49:14.571Z,3.98
2016-02-27T06:50:14.574Z,3.95
2016-02-27T06:51:14.593Z,4.04
2016-02-27T06:52:14.610Z,3.99
2016-02-27T06:53:14.629Z,4.02
2016-02-27T06:54:14.632Z,4.02
2016-02-27T06:55:14.634Z,4.04
2016-02-27T06:56:14.651Z,4.1
2016-02-27T06:57:14.670Z,4.12
2016-02-27T06:58:14.673Z,4.13
2016-02-27T06:59:14.738Z,4.12
2016-02-27T07:00:14.710Z,4.19
2016-02-27T07:01:14.759Z,4.19
2016-02-27T07:02:14.747Z,4.22
2016-02-27T07:03:14.734Z,4.22
2016-02-27T07:04:14.752Z,4.24
2016-02-27T07:05:14.770Z,4.2
2016-02-27T07:06:14.772Z,4.22
2016-02-27T07:07:14.806Z,4.16
2016-02-27T07:08:14.810Z,4.16
2016-02-27T07:09:14.828Z,4.28
2016-02-27T07:10:14.831Z,4.24
2016-02-27T07:11:14.864Z,4.26
2016-02-27T07:12:14.883Z,4.34
2016-02-27T07:13:14.885Z,4.3
2016-02-27T07:14:14.904Z,4.41
2016-02-27T07:15:14.907Z,4.35
2016-02-27T07:16:14.925Z,4.42
2016-02-27T07:17:14.928Z,4.44
2016-02-27T07:18:14.946Z,4.49
2016-02-27T07:19:14.964Z,4.44
2016-02-27T07:20:14.966Z,4.49
2016-02-27T07:21:14.985Z,4.58
2016-02-27T07:22:15.003Z,4.53
2016-02-27T07:23:15.037Z,4.58
2016-02-27T07:24:15.025Z,4.6
2016-02-27T07:25:15.043Z,4.58
2016-02-27T07:26:15.062Z,4.53
2016-02-27T07:27:15.064Z,4.62
2016-02-27T07:28:15.082Z,4.59
2016-02-27T07:29:15.100Z,4.62
2016-02-27T07:30:15.118Z,4.49
2016-02-27T07:31:15.121Z,4.58
2016-02-27T07:32:15.140Z,4.59
2016-02-27T07:33:15.174Z,4.59
2016-02-27T07:34:15.145Z,4.62
2016-02-27T07:35:15.179Z,4.59
2016-02-27T07:36:15.181Z,4.55
2016-02-27T07:37:15.200Z,4.6
2016-02-27T07:38:15.218Z,4.59
2016-02-27T07:39:15.236Z,4.66
2016-02-27T07:40:15.256Z,4.6
2016-02-27T07:41:15.258Z,4.59
2016-02-27T07:42:15.261Z,4.67
2016-02-27T07:43:15.278Z,4.56
2016-02-27T07:44:15.297Z,4.56
2016-02-27T07:45:15.299Z,4.56
2016-02-27T07:46:15.318Z,4.6
2016-02-27T07:47:15.336Z,4.75
2016-02-27T07:48:15.355Z,4.62
2016-02-27T07:49:15.358Z,4.67
2016-02-27T07:50:15.376Z,4.68
2016-02-27T07:51:15.394Z,4.63
2016-02-27T07:52:15.413Z,4.67
2016-02-27T07:53:15.430Z,4.71
2016-02-27T07:54:15.433Z,4.78
2016-02-27T07:55:15.451Z,4.55
2016-02-27T07:56:15.470Z,4.59
2016-02-27T07:57:15.473Z,4.71
2016-02-27T07:58:15.475Z,4.68
2016-02-27T07:59:15.509Z,4.7
2016-02-27T08:00:15.543Z,4.63
2016-02-27T08:01:15.531Z,4.7
2016-02-27T08:02:15.408Z,4.74
2016-02-27T08:03:15.582Z,4.73
2016-02-27T08:04:15.570Z,4.66
2016-02-27T08:05:15.588Z,4.68
2016-02-27T08:06:15.590Z,4.84
2016-02-27T08:07:15.609Z,4.87
2016-02-27T08:08:15.628Z,4.82
2016-02-27T08:09:15.630Z,4.87
2016-02-27T08:10:15.648Z,4.86
2016-02-27T08:11:15.650Z,4.82
2016-02-27T08:12:15.685Z,4.84
2016-02-27T08:13:15.688Z,4.86
2016-02-27T08:14:15.705Z,4.89
2016-02-27T08:15:15.724Z,4.94
2016-02-27T08:16:15.758Z,4.89
2016-02-27T08:17:15.745Z,4.92
2016-02-27T08:18:15.779Z,4.92
2016-02-27T08:19:15.766Z,4.92
2016-02-27T08:20:15.785Z,4.87
2016-02-27T08:21:15.803Z,5.04
2016-02-27T08:22:15.822Z,4.94
2016-02-27T08:23:15.840Z,4.9
2016-02-27T08:24:15.857Z,5.04
2016-02-27T08:25:15.877Z,5.08
2016-02-27T08:26:15.863Z,5.08
2016-02-27T08:27:15.882Z,5.08
2016-02-27T08:28:15.899Z,5.1
2016-02-27T08:29:15.902Z,5.12
2016-02-27T08:30:15.936Z,5.11
2016-02-27T08:31:15.940Z,5.1
2016-02-27T08:32:15.973Z,5.15
2016-02-27T08:33:15.992Z,5.17
2016-02-27T08:34:15.994Z,5.21
2016-02-27T08:35:15.997Z,5.21
2016-02-27T08:36:16.015Z,5.32
2016-02-27T08:37:16.018Z,5.25
2016-02-27T08:38:16.037Z,5.25
2016-02-27T08:39:16.054Z,5.2
2016-02-27T08:40:16.057Z,5.29
2016-02-27T08:41:16.076Z,5.26
2016-02-27T08:42:16.094Z,5.29
2016-02-27T08:43:16.112Z,5.33
2016-02-27T08:44:16.147Z,5.33
2016-02-27T08:45:16.149Z,5.29
2016-02-27T08:46:16.136Z,5.33
2016-02-27T08:47:16.169Z,5.3
2016-02-27T08:48:16.032Z,5.41
2016-02-27T08:49:16.190Z,5.46
2016-02-27T08:50:16.209Z,5.44
2016-02-27T08:51:16.211Z,5.46
2016-02-27T08:52:16.230Z,5.44
2016-02-27T08:53:16.249Z,5.56
2016-02-27T08:54:16.282Z,5.61
2016-02-27T08:55:16.269Z,5.62
2016-02-27T08:56:16.288Z,5.57
2016-02-27T08:57:16.321Z,5.68
2016-02-27T08:58:16.371Z,5.64
2016-02-27T08:59:16.357Z,5.73
2016-02-27T09:00:16.345Z,5.73
2016-02-27T09:01:16.363Z,5.76
2016-02-27T09:02:16.366Z,5.8
2016-02-27T09:03:16.323Z,5.86
2016-02-27T09:04:16.403Z,5.89
2016-02-27T09:05:16.421Z,5.89
2016-02-27T09:06:16.423Z,5.93
2016-02-27T09:07:16.442Z,6.01
2016-02-27T09:08:16.461Z,6.01
2016-02-27T09:09:16.322Z,5.97
2016-02-27T09:10:16.497Z,6.12
2016-02-27T09:11:16.500Z,6.05
2016-02-27T09:12:16.518Z,6.05
2016-02-27T09:13:16.521Z,6.16
2016-02-27T09:14:16.555Z,6.19
2016-02-27T09:15:16.542Z,6.31
2016-02-27T09:16:16.576Z,6.2
2016-02-27T09:17:16.610Z,6.26
2016-02-27T09:18:16.597Z,6.31
2016-02-27T09:19:16.615Z,6.3
2016-02-27T09:20:16.633Z,6.33
2016-02-27T09:21:16.636Z,6.36
2016-02-27T09:22:16.779Z,6.46
2016-02-27T09:23:16.672Z,6.46
2016-02-27T09:24:16.691Z,6.57
2016-02-27T09:25:16.709Z,6.56
2016-02-27T09:26:16.713Z,6.54
2016-02-27T09:27:16.730Z,6.48
2016-02-27T09:28:16.764Z,6.59
2016-02-27T09:29:16.783Z,6.62
2016-02-27T09:30:16.770Z,6.62
2016-02-27T09:31:16.788Z,6.64
2016-02-27T09:32:16.790Z,6.62
2016-02-27T09:33:16.824Z,6.72
2016-02-27T09:34:16.826Z,6.77
2016-02-27T09:35:16.845Z,6.79
2016-02-27T09:36:16.864Z,6.85
2016-02-27T09:37:16.914Z,6.82
2016-02-27T09:38:16.917Z,6.89
2016-02-27T09:39:16.903Z,6.93
2016-02-27T09:40:16.922Z,6.92
2016-02-27T09:41:16.971Z,7.03
2016-02-27T09:42:16.958Z,7.06
2016-02-27T09:43:16.961Z,7.15
2016-02-27T09:44:16.979Z,7.2
2016-02-27T09:45:17.201Z,7.15
2016-02-27T09:46:17.016Z,7.23
2016-02-27T09:47:17.050Z,7.18
2016-02-27T09:48:17.052Z,7.2
2016-02-27T09:49:17.071Z,7.32
2016-02-27T09:50:17.120Z,7.33
2016-02-27T09:51:17.091Z,7.31
2016-02-27T09:52:17.094Z,7.35
2016-02-27T09:53:17.143Z,7.5
2016-02-27T09:54:17.131Z,7.48
2016-02-27T09:55:17.166Z,7.47
2016-02-27T09:56:17.183Z,7.51
2016-02-27T09:57:17.186Z,7.66
2016-02-27T09:58:17.189Z,7.66
2016-02-27T09:59:17.223Z,7.73
2016-02-27T10:00:17.226Z,7.7
2016-02-27T10:01:17.243Z,7.73
2016-02-27T10:02:17.262Z,7.75
2016-02-27T10:03:17.343Z,7.77
2016-02-27T10:04:17.282Z,7.85
2016-02-27T10:05:17.302Z,7.79
2016-02-27T10:06:17.304Z,7.83
2016-02-27T10:07:17.337Z,7.85
2016-02-27T10:08:17.341Z,7.88
2016-02-27T10:09:17.406Z,7.88
2016-02-27T10:10:17.393Z,8
2016-02-27T10:11:17.395Z,7.95
2016-02-27T10:12:17.398Z,8.03
2016-02-27T10:13:17.417Z,8.09
2016-02-27T10:14:17.450Z,8.06
2016-02-27T10:15:17.453Z,8.09
2016-02-27T10:16:17.456Z,8.06
2016-02-27T10:17:17.475Z,8.12
2016-02-27T10:18:17.508Z,8.19
2016-02-27T10:19:17.527Z,8.2
2016-02-27T10:20:17.545Z,8.2
2016-02-27T10:21:17.578Z,8.24
2016-02-27T10:22:17.566Z,8.33
2016-02-27T10:23:17.568Z,8.33
2016-02-27T10:24:17.586Z,8.27
2016-02-27T10:25:17.605Z,8.45
2016-02-27T10:26:17.624Z,8.45
2016-02-27T10:27:17.626Z,8.51
2016-02-27T10:28:17.660Z,8.51
2016-02-27T10:29:17.663Z,8.64
2016-02-27T10:30:17.727Z,8.69
2016-02-27T10:31:17.730Z,8.7
2016-02-27T10:32:17.718Z,8.76
2016-02-27T10:33:17.767Z,8.67
2016-02-27T10:34:17.754Z,8.74
2016-02-27T10:35:17.788Z,8.78
2016-02-27T10:36:17.790Z,8.82
2016-02-27T10:37:17.793Z,8.82
2016-02-27T10:38:17.843Z,8.88
2016-02-27T10:39:17.830Z,8.92
2016-02-27T10:40:17.848Z,8.92
2016-02-27T10:41:17.867Z,8.95
2016-02-27T10:42:17.870Z,9
2016-02-27T10:43:17.919Z,8.99
2016-02-27T10:44:17.922Z,8.99
2016-02-27T10:45:17.972Z,9.06
2016-02-27T10:46:17.958Z,9.08
2016-02-27T10:47:17.961Z,9.13
2016-02-27T10:48:18.011Z,9.11
2016-02-27T10:49:18.014Z,9.19
2016-02-27T10:50:18.016Z,9.21
2016-02-27T10:51:17.331Z,9.28
2016-02-27T10:52:18.271Z,9.29
2016-02-27T10:53:18.071Z,9.32
2016-02-27T10:54:18.074Z,9.39
2016-02-27T10:55:18.124Z,9.36
2016-02-27T10:56:18.142Z,9.36
2016-02-27T10:57:18.129Z,9.4
2016-02-27T10:58:18.163Z,9.44
2016-02-27T10:59:18.181Z,9.41
2016-02-27T11:00:18.387Z,9.37
2016-02-27T11:01:18.202Z,9.55
2016-02-27T11:02:18.251Z,9.59
2016-02-27T11:03:18.238Z,9.55
2016-02-27T11:04:18.241Z,9.54
2016-02-27T11:05:18.290Z,9.58
2016-02-27T11:06:18.293Z,9.72
2016-02-27T11:07:18.515Z,9.64
2016-02-27T11:08:18.299Z,9.69
2016-02-27T11:09:18.332Z,9.72
2016-02-27T11:10:18.351Z,9.68
2016-02-27T11:11:18.462Z,9.72
2016-02-27T11:12:18.372Z,9.77
2016-02-27T11:13:18.422Z,9.64
2016-02-27T11:14:18.253Z,9.73
2016-02-27T11:15:18.458Z,9.76
2016-02-27T11:16:18.461Z,9.79
2016-02-27T11:17:18.479Z,9.83
2016-02-27T11:18:18.685Z,9.83
2016-02-27T11:19:18.484Z,9.86
2016-02-27T11:20:18.722Z,9.86
2016-02-27T11:21:18.553Z,9.8
2016-02-27T11:22:18.540Z,9.89
2016-02-27T11:23:18.589Z,9.87
2016-02-27T11:24:18.577Z,9.86
2016-02-27T11:25:18.626Z,9.98
2016-02-27T11:26:18.628Z,9.98
2016-02-27T11:27:18.631Z,9.95
2016-02-27T11:28:18.758Z,9.99
2016-02-27T11:29:18.653Z,9.99
2016-02-27T11:30:18.718Z,10.07
2016-02-27T11:31:18.705Z,10.09
2016-02-27T11:32:18.755Z,10.15
2016-02-27T11:33:18.787Z,10.15
2016-02-27T11:34:18.743Z,10.2
2016-02-27T11:35:18.809Z,10.3
2016-02-27T11:36:18.780Z,10.33
2016-02-27T11:37:18.799Z,10.28
2016-02-27T11:38:18.849Z,10.3
2016-02-27T11:39:18.835Z,10.38
2016-02-27T11:40:18.870Z,10.37
2016-02-27T11:41:18.903Z,10.44
2016-02-27T11:42:19.093Z,10.54
2016-02-27T11:43:18.924Z,10.54
2016-02-27T11:44:18.911Z,10.54
2016-02-27T11:45:19.009Z,10.6
2016-02-27T11:46:19.198Z,10.64
2016-02-27T11:47:18.998Z,10.68
2016-02-27T11:48:19.062Z,10.74
2016-02-27T11:49:19.253Z,10.76
2016-02-27T11:50:19.036Z,10.76
2016-02-27T11:51:19.055Z,10.76
2016-02-27T11:52:19.058Z,10.75
2016-02-27T11:53:19.092Z,10.76
2016-02-27T11:54:19.111Z,10.84
2016-02-27T11:55:19.144Z,10.81
2016-02-27T11:56:19.131Z,10.81
2016-02-27T11:57:19.180Z,10.79
2016-02-27T11:58:19.183Z,10.79
2016-02-27T11:59:19.186Z,10.87
2016-02-27T12:00:19.219Z,10.84
2016-02-27T12:01:19.255Z,10.93
2016-02-27T12:02:19.257Z,10.81
2016-02-27T12:03:19.260Z,10.78
2016-02-27T12:04:19.309Z,10.74
2016-02-27T12:05:19.296Z,10.86
2016-02-27T12:06:19.346Z,10.81
2016-02-27T12:07:19.348Z,10.75
2016-02-27T12:08:19.554Z,10.87
2016-02-27T12:09:19.385Z,10.84
2016-02-27T12:10:19.388Z,10.89
2016-02-27T12:11:19.406Z,10.89
2016-02-27T12:12:19.643Z,10.86
2016-02-27T12:13:19.458Z,10.9
2016-02-27T12:14:19.476Z,10.81
2016-02-27T12:15:19.479Z,10.86
2016-02-27T12:16:19.512Z,10.89
2016-02-27T12:17:19.532Z,10.79
2016-02-27T12:18:19.581Z,10.82
2016-02-27T12:19:19.553Z,10.87
2016-02-27T12:20:19.586Z,10.82
2016-02-27T12:21:19.620Z,10.93
2016-02-27T12:22:19.608Z,10.99
2016-02-27T12:23:19.642Z,10.89
2016-02-27T12:24:19.644Z,10.97
2016-02-27T12:25:19.694Z,10.9
2016-02-27T12:26:19.775Z,10.89
2016-02-27T12:27:19.730Z,10.99
2016-02-27T12:28:19.717Z,10.99
2016-02-27T12:29:19.955Z,10.97
2016-02-27T12:30:19.769Z,10.93
2016-02-27T12:31:19.835Z,11.05
2016-02-27T12:32:19.791Z,11.05
2016-02-27T12:33:19.841Z,10.94
2016-02-27T12:34:19.843Z,10.97
2016-02-27T12:35:19.861Z,11.08
2016-02-27T12:36:19.880Z,11.07
2016-02-27T12:37:19.913Z,11.02
2016-02-27T12:38:19.901Z,11.04
2016-02-27T12:39:19.982Z,11.11
2016-02-27T12:40:19.952Z,11.07
2016-02-27T12:41:20.065Z,11.11
2016-02-27T12:42:19.302Z,11.17
2016-02-27T12:43:20.117Z,11.12
2016-02-27T12:44:20.151Z,11.12
2016-02-27T12:45:20.154Z,11.14
2016-02-27T12:46:20.312Z,11.15
2016-02-27T12:47:20.081Z,11.14
2016-02-27T12:48:20.240Z,11.15
2016-02-27T12:49:20.133Z,11.15
2016-02-27T12:50:19.995Z,11.18
2016-02-27T12:51:20.186Z,11.12
2016-02-27T12:52:20.157Z,11.07
2016-02-27T12:53:20.378Z,11.07
2016-02-27T12:54:20.209Z,11.02
2016-02-27T12:55:20.258Z,11.04
2016-02-27T12:56:20.511Z,10.97
2016-02-27T12:57:20.545Z,11.08
2016-02-27T12:58:20.283Z,11.02
2016-02-27T12:59:20.347Z,10.97
2016-02-27T13:00:20.381Z,11.02
2016-02-27T13:01:20.541Z,10.97
2016-02-27T13:02:20.590Z,11
2016-02-27T13:03:20.608Z,10.99
2016-02-27T13:04:20.563Z,10.96
2016-02-27T13:05:20.427Z,10.96
2016-02-27T13:06:20.804Z,10.93
2016-02-27T13:07:20.463Z,10.92
2016-02-27T13:08:20.513Z,10.87
2016-02-27T13:09:20.515Z,10.92
2016-02-27T13:10:20.565Z,10.93
2016-02-27T13:11:20.567Z,10.97
2016-02-27T13:12:20.585Z,10.89
2016-02-27T13:13:20.432Z,10.89
2016-02-27T13:14:20.638Z,10.96
2016-02-27T13:15:20.672Z,10.97
2016-02-27T13:16:20.674Z,10.99
2016-02-27T13:17:20.676Z,10.94
2016-02-27T13:18:20.695Z,10.97